Time;durP1;ratioP1;P1;durP2;ratioP2;P2;SDS_P1;SDS_P2;PMS_P1;PMS_P2;Temp;Humidity;BMP_temperature;BMP_pressure;BME280_temperature;BME280_humidity;BME280_pressure;Samples;Min_cycle;Max_cycle;Signal;HPM_P1;HPM_P2
2024/01/15 00:00:00;;;;;;;;;1.00;1.00;;;;;14.85;68.34;99944.09;5117444;27;45569;-70
2024/01/15 00:02:25;;;;;;;;;0.67;0.67;;;;;14.83;68.40;99935.31;5116861;27;45522;-70
2024/01/15 00:04:51;;;;;;;;;1.00;1.00;;;;;14.84;68.26;99932.69;5116771;27;45503;-71
2024/01/15 00:07:17;;;;;;;;;0.75;0.75;;;;;14.84;68.32;99937.06;5117094;27;45409;-71
2024/01/15 00:09:43;;;;;;;;;1.00;1.00;;;;;14.84;68.23;99935.34;5119665;27;45478;-71
2024/01/15 00:12:08;;;;;;;;;1.00;1.00;;;;;14.82;68.64;99926.56;5120492;27;45521;-71
2024/01/15 00:14:35;;;;;;;;;1.00;1.00;;;;;14.81;68.56;99924.78;5120298;27;45349;-72
2024/01/15 00:17:01;;;;;;;;;1.00;1.00;;;;;14.81;68.62;99924.78;5120417;27;45352;-72
2024/01/15 00:19:32;;;;;;;;;1.00;1.00;;;;;14.79;68.60;99929.16;5120490;27;45472;-71
2024/01/15 00:21:57;;;;;;;;;0.00;0.00;;;;;14.81;68.51;99927.41;5118246;27;45972;-72
2024/01/15 00:24:23;;;;;;;;;1.00;1.00;;;;;14.82;68.65;99920.41;5120280;27;45460;-72
2024/01/15 00:26:48;;;;;;;;;1.00;1.00;;;;;14.89;68.12;99909.91;5120308;27;45455;-72
2024/01/15 00:29:14;;;;;;;;;1.00;1.00;;;;;14.90;68.41;99909.03;5120354;27;45358;-72
2024/01/15 00:31:40;;;;;;;;;2.00;1.00;;;;;14.90;68.37;99909.03;5120170;27;45390;-71
2024/01/15 00:34:05;;;;;;;;;1.67;1.67;;;;;14.85;68.23;99894.13;5120029;27;45376;-71
2024/01/15 00:36:33;;;;;;;;;1.00;1.00;;;;;14.90;68.05;99902.88;5120195;27;45463;-71
2024/01/15 00:38:59;;;;;;;;;0.00;0.00;;;;;14.87;68.10;99905.53;5120266;27;45430;-72
2024/01/15 00:41:25;;;;;;;;;0.75;0.75;;;;;14.89;68.20;99902.00;5120858;27;46082;-72
2024/01/15 00:43:50;;;;;;;;;0.67;0.67;;;;;14.85;68.54;99889.75;5120560;27;45461;-71
2024/01/15 00:46:16;;;;;;;;;0.00;0.00;;;;;14.80;68.73;99885.34;5121246;27;45339;-72
2024/01/15 00:48:42;;;;;;;;;0.00;0.00;;;;;14.78;68.49;99876.56;5121424;27;45245;-72
2024/01/15 00:51:07;;;;;;;;;0.00;0.00;;;;;14.61;68.15;99837.13;5121056;27;45517;-72
2024/01/15 00:53:33;;;;;;;;;0.00;0.00;;;;;14.69;68.30;99841.50;5119248;27;45295;-72
2024/01/15 00:55:59;;;;;;;;;0.00;0.00;;;;;14.85;68.02;99865.19;5120449;27;45465;-71
2024/01/15 00:58:25;;;;;;;;;0.00;0.00;;;;;14.68;68.32;99838.88;5120100;27;45417;-72
2024/01/15 01:00:51;;;;;;;;;0.00;0.00;;;;;14.75;68.31;99848.53;5119584;27;46787;-72
2024/01/15 01:03:16;;;;;;;;;0.00;0.00;;;;;14.88;68.14;99854.66;5120018;27;45558;-71
2024/01/15 01:05:42;;;;;;;;;0.00;0.00;;;;;14.81;68.09;99835.38;5120434;27;45372;-72
2024/01/15 01:08:08;;;;;;;;;1.00;0.00;;;;;14.86;67.98;99845.91;5121160;27;45506;-72
2024/01/15 01:10:33;;;;;;;;;0.00;0.00;;;;;14.75;68.11;99822.25;5119378;27;45521;-72
2024/01/15 01:12:59;;;;;;;;;0.00;0.00;;;;;14.93;67.92;99852.06;5120725;27;45570;-72
2024/01/15 01:15:25;;;;;;;;;0.00;0.00;;;;;14.93;67.90;99845.03;5120690;27;45215;-72
2024/01/15 01:17:50;;;;;;;;;0.33;0.00;;;;;14.93;68.08;99841.56;5121019;27;45437;-72
2024/01/15 01:20:16;;;;;;;;;0.00;0.00;;;;;14.88;68.14;99829.28;5118832;27;45476;-71
2024/01/15 01:22:42;;;;;;;;;0.00;0.00;;;;;14.90;67.95;99830.16;5120806;27;45452;-72
2024/01/15 01:25:08;;;;;;;;;0.00;0.00;;;;;15.04;67.94;99839.78;5120623;27;45364;-72
2024/01/15 01:27:33;;;;;;;;;0.00;0.00;;;;;15.08;67.60;99841.53;5120835;27;45397;-72
2024/01/15 01:29:59;;;;;;;;;0.00;0.00;;;;;15.10;67.62;99830.16;5119033;27;45519;-72
2024/01/15 01:32:25;;;;;;;;;0.00;0.00;;;;;15.15;67.30;99830.16;5120379;27;45514;-72
2024/01/15 01:34:50;;;;;;;;;0.00;0.00;;;;;15.03;67.30;99798.59;5120527;27;45375;-72
2024/01/15 01:37:16;;;;;;;;;0.00;0.00;;;;;15.20;66.89;99836.31;5120504;27;45311;-72
2024/01/15 01:39:44;;;;;;;;;0.00;0.00;;;;;15.24;66.84;99830.16;5120612;27;45321;-72
2024/01/15 01:42:10;;;;;;;;;0.00;0.00;;;;;15.26;66.83;99833.66;5120654;27;45423;-72
2024/01/15 01:44:36;;;;;;;;;0.00;0.00;;;;;15.26;66.77;99832.75;5120229;27;45479;-72
2024/01/15 01:47:03;;;;;;;;;0.00;0.00;;;;;15.28;66.72;99826.66;5120293;27;45218;-72
2024/01/15 01:49:30;;;;;;;;;0.00;0.00;;;;;15.30;66.67;99827.53;5120010;27;45478;-72
2024/01/15 01:51:58;;;;;;;;;0.00;0.00;;;;;15.31;66.49;99831.88;5119990;27;45321;-72
2024/01/15 01:54:25;;;;;;;;;0.00;0.00;;;;;15.14;66.05;99783.69;5120171;27;45362;-72
2024/01/15 01:56:51;;;;;;;;;0.00;0.00;;;;;15.36;66.07;99821.38;5120133;27;45388;-72
2024/01/15 01:59:17;;;;;;;;;0.00;0.00;;;;;15.16;65.84;99783.66;5119850;27;45356;-72
2024/01/15 02:01:44;;;;;;;;;0.00;0.00;;;;;15.36;65.78;99818.75;5120225;27;45482;-72
2024/01/15 02:04:11;;;;;;;;;0.00;0.00;;;;;15.35;65.79;99816.97;5120465;27;46064;-72
2024/01/15 02:06:37;;;;;;;;;0.00;0.00;;;;;15.19;65.55;99788.94;5120087;27;45494;-72
2024/01/15 02:09:05;;;;;;;;;0.00;0.00;;;;;15.39;65.71;99821.34;5119588;27;45424;-72
2024/01/15 02:11:31;;;;;;;;;3.00;3.00;;;;;15.38;65.96;99824.88;5119941;27;45413;-72
2024/01/15 02:13:57;;;;;;;;;1.00;1.00;;;;;15.35;66.31;99822.25;5118153;27;45424;-72
2024/01/15 02:16:22;;;;;;;;;0.00;0.00;;;;;15.20;66.31;99804.72;5119470;27;45332;-72
2024/01/15 02:18:48;;;;;;;;;2.00;2.00;;;;;14.93;66.40;99754.75;5119175;27;45537;-71
2024/01/15 02:21:13;;;;;;;;;2.00;2.00;;;;;15.34;66.05;99809.97;5119612;27;45438;-71
2024/01/15 02:23:39;;;;;;;;;0.00;0.00;;;;;15.40;66.10;99807.34;5119527;27;45450;-71
2024/01/15 02:26:05;;;;;;;;;0.00;0.00;;;;;15.28;65.76;99789.81;5119740;27;45506;-71
2024/01/15 02:28:33;;;;;;;;;0.00;0.00;;;;;15.35;65.76;99795.06;5119479;27;45976;-71
2024/01/15 02:30:58;;;;;;;;;0.00;0.00;;;;;15.43;65.45;99807.31;5118303;27;45482;-71
2024/01/15 02:33:24;;;;;;;;;0.00;0.00;;;;;15.46;65.38;99806.44;5119232;27;45505;-71
2024/01/15 02:35:50;;;;;;;;;0.00;0.00;;;;;15.35;65.47;99776.63;5119610;27;45318;-71
2024/01/15 02:38:16;;;;;;;;;0.00;0.00;;;;;15.38;65.05;99771.34;5119668;27;45227;-71
2024/01/15 02:40:43;;;;;;;;;0.00;0.00;;;;;15.56;65.32;99796.75;5119196;27;45336;-72
2024/01/15 02:43:08;;;;;;;;;0.00;0.00;;;;;15.57;65.24;99795.88;5119348;27;45270;-72
2024/01/15 02:45:34;;;;;;;;;0.00;0.00;;;;;15.58;65.25;99798.53;5118206;27;45300;-71
2024/01/15 02:48:00;;;;;;;;;0.00;0.00;;;;;15.60;65.12;99791.50;5119124;27;45529;-71
2024/01/15 02:50:26;;;;;;;;;0.00;0.00;;;;;15.63;64.87;99794.09;5119120;27;45533;-71
2024/01/15 02:52:52;;;;;;;;;0.00;0.00;;;;;15.64;64.96;99782.72;5119443;27;45328;-71
2024/01/15 02:55:17;;;;;;;;;0.00;0.00;;;;;15.45;65.10;99754.69;5118263;27;45551;-71
2024/01/15 02:57:43;;;;;;;;;0.00;0.00;;;;;15.65;65.07;99781.81;5119145;27;45974;-71
2024/01/15 03:00:09;;;;;;;;;0.00;0.00;;;;;15.64;65.38;99785.34;5118981;27;45499;-71
2024/01/15 03:02:39;;;;;;;;;0.00;0.00;;;;;15.63;65.53;99778.31;5119070;27;45220;-71
2024/01/15 03:05:15;;;;;;;;;0.00;0.00;;;;;15.64;65.47;99779.22;5119279;27;45494;-71
2024/01/15 03:07:40;;;;;;;;;0.00;0.00;;;;;15.60;65.71;99778.34;5118732;27;46226;-71
2024/01/15 03:10:06;;;;;;;;;0.00;0.00;;;;;15.58;65.88;99769.56;5117416;27;45297;-71
2024/01/15 03:12:32;;;;;;;;;0.00;0.00;;;;;15.58;66.26;99768.66;5119024;27;45473;-72
2024/01/15 03:14:58;;;;;;;;;0.00;0.00;;;;;15.55;66.26;99758.16;5117651;27;45383;-72
2024/01/15 03:17:23;;;;;;;;;0.00;0.00;;;;;15.55;66.40;99756.41;5120208;27;46089;-71
2024/01/15 03:19:52;;;;;;;;;0.00;0.00;;;;;15.57;66.44;99759.03;5121905;27;45490;-71
2024/01/15 03:22:17;;;;;;;;;0.00;0.00;;;;;15.54;66.66;99751.13;5118953;27;45226;-71
2024/01/15 03:24:43;;;;;;;;;0.00;0.00;;;;;15.57;66.67;99752.00;5118828;27;45451;-71
2024/01/15 03:27:09;;;;;;;;;0.00;0.00;;;;;15.55;66.78;99745.88;5118581;27;45505;-71
2024/01/15 03:29:35;;;;;;;;;0.00;0.00;;;;;15.56;66.94;99737.09;5118343;27;45422;-71
2024/01/15 03:32:00;;;;;;;;;0.00;0.00;;;;;15.52;66.72;99730.09;5118728;27;45545;-72
2024/01/15 03:34:26;;;;;;;;;0.00;0.00;;;;;15.55;66.67;99732.72;5118760;27;45766;-72
2024/01/15 03:36:51;;;;;;;;;0.00;0.00;;;;;15.47;66.66;99713.44;5118174;27;46051;-72
2024/01/15 03:39:17;;;;;;;;;0.00;0.00;;;;;15.49;66.69;99725.69;5118594;27;45399;-72
2024/01/15 03:41:43;;;;;;;;;0.00;0.00;;;;;15.48;66.57;99733.63;5117204;27;45490;-72
2024/01/15 03:44:08;;;;;;;;;0.00;0.00;;;;;15.45;66.39;99731.00;5122011;27;45462;-72
2024/01/15 03:46:34;;;;;;;;;0.00;0.00;;;;;15.43;66.56;99722.22;5121969;27;45636;-72
2024/01/15 03:48:59;;;;;;;;;0.00;0.00;;;;;15.41;66.64;99724.84;5122039;27;45294;-72
2024/01/15 03:51:25;;;;;;;;;0.00;0.00;;;;;15.15;66.72;99681.97;5122148;27;45228;-72
2024/01/15 03:53:51;;;;;;;;;0.00;0.00;;;;;15.34;66.71;99717.88;5122675;27;45358;-72
2024/01/15 03:56:17;;;;;;;;;0.00;0.00;;;;;15.34;66.79;99724.88;5121798;27;45291;-72
2024/01/15 03:58:42;;;;;;;;;0.00;0.00;;;;;15.35;66.89;99724.00;5121937;27;45355;-72
2024/01/15 04:01:10;;;;;;;;;0.00;0.00;;;;;15.26;66.60;99704.72;5121665;27;45285;-72
2024/01/15 04:03:35;;;;;;;;;0.00;0.00;;;;;15.40;66.67;99716.94;5122092;27;45569;-72
2024/01/15 04:06:01;;;;;;;;;0.00;0.00;;;;;15.47;66.49;99721.34;5121655;27;46083;-72
2024/01/15 04:08:27;;;;;;;;;0.00;0.00;;;;;15.49;66.24;99703.78;5121672;27;45313;-72
2024/01/15 04:10:52;;;;;;;;;0.00;0.00;;;;;15.49;66.17;99699.38;5122037;27;45493;-72
2024/01/15 04:13:18;;;;;;;;;0.00;0.00;;;;;15.48;66.13;99702.03;5122023;27;45596;-72
2024/01/15 04:15:43;;;;;;;;;0.00;0.00;;;;;15.08;66.07;99631.09;5121402;27;45989;-72
2024/01/15 04:18:09;;;;;;;;;0.00;0.00;;;;;15.44;65.90;99682.75;5121702;27;45508;-72
2024/01/15 04:20:35;;;;;;;;;0.00;0.00;;;;;15.47;65.81;99692.38;5121670;27;45304;-72
2024/01/15 04:23:00;;;;;;;;;1.00;0.00;;;;;15.45;65.73;99689.75;5121803;27;45493;-71
2024/01/15 04:25:26;;;;;;;;;0.00;0.00;;;;;15.46;65.53;99688.88;5121451;27;45294;-73
2024/01/15 04:27:51;;;;;;;;;1.67;1.33;;;;;15.45;65.46;99681.84;5121722;27;45300;-72
2024/01/15 04:30:17;;;;;;;;;2.67;2.67;;;;;15.45;65.47;99676.59;5121493;27;45497;-71
2024/01/15 04:32:42;;;;;;;;;1.00;1.00;;;;;15.45;65.46;99668.69;5121673;27;45275;-72
2024/01/15 04:35:08;;;;;;;;;0.00;0.00;;;;;15.18;65.49;99624.06;5121232;27;45427;-72
2024/01/15 04:37:34;;;;;;;;;0.00;0.00;;;;;15.45;65.42;99666.06;5121180;27;45424;-72
2024/01/15 04:39:59;;;;;;;;;0.33;0.33;;;;;15.44;65.42;99666.09;5121366;27;45372;-72
2024/01/15 04:42:25;;;;;;;;;5.00;4.50;;;;;15.36;65.23;99644.16;5120093;27;45285;-72
2024/01/15 04:44:51;;;;;;;;;0.67;0.67;;;;;15.45;65.57;99666.06;5121187;27;45992;-72
2024/01/15 04:47:16;;;;;;;;;2.00;1.33;;;;;15.38;65.62;99645.03;5120966;27;45354;-72
2024/01/15 04:49:42;;;;;;;;;1.00;1.00;;;;;15.47;65.67;99661.66;5121179;27;45702;-72
2024/01/15 04:52:10;;;;;;;;;0.67;0.67;;;;;15.47;66.00;99666.06;5121310;27;45416;-72
2024/01/15 04:54:36;;;;;;;;;1.00;0.33;;;;;15.16;66.14;99613.56;5120289;27;45514;-72
2024/01/15 04:57:02;;;;;;;;;0.00;0.00;;;;;15.44;66.36;99659.06;5120807;27;45612;-72
2024/01/15 04:59:28;;;;;;;;;1.00;0.00;;;;;15.45;66.12;99652.03;5120819;27;45525;-72
2024/01/15 05:01:54;;;;;;;;;0.00;0.00;;;;;15.45;66.13;99655.53;5121237;27;45459;-72
2024/01/15 05:04:20;;;;;;;;;0.00;0.00;;;;;15.47;66.05;99650.25;5120557;27;46103;-72
2024/01/15 05:06:46;;;;;;;;;1.00;1.00;;;;;15.49;65.97;99637.97;5120817;27;45767;-72
2024/01/15 05:09:13;;;;;;;;;0.67;0.67;;;;;15.47;65.75;99626.56;5120859;27;45315;-72
2024/01/15 05:11:39;;;;;;;;;1.00;1.00;;;;;15.41;65.49;99613.44;5119528;27;45315;-72
2024/01/15 05:14:05;;;;;;;;;0.00;0.00;;;;;15.55;65.53;99616.88;5120403;27;46049;-72
2024/01/15 05:16:30;;;;;;;;;1.67;1.00;;;;;15.41;65.33;99590.63;5120201;27;45404;-72
2024/01/15 05:18:56;;;;;;;;;0.00;0.00;;;;;15.58;65.38;99616.88;5120905;27;45549;-72
2024/01/15 05:21:21;;;;;;;;;1.00;0.00;;;;;15.56;65.63;99613.38;5121126;27;45459;-72
2024/01/15 05:23:47;;;;;;;;;0.00;0.00;;;;;15.44;65.67;99600.28;5120489;27;45426;-72
2024/01/15 05:26:13;;;;;;;;;1.00;0.33;;;;;15.52;66.06;99623.03;5120497;27;45173;-72
2024/01/15 05:28:40;;;;;;;;;1.00;1.00;;;;;15.50;66.10;99630.06;5120460;27;45447;-72
2024/01/15 05:31:06;;;;;;;;;1.00;1.00;;;;;15.49;66.33;99630.06;5120754;27;45465;-72
2024/01/15 05:33:31;;;;;;;;;1.67;1.67;;;;;15.48;66.28;99621.31;5120207;27;45338;-72
2024/01/15 05:35:58;;;;;;;;;1.33;1.00;;;;;15.47;66.35;99619.56;5120479;27;45558;-72
2024/01/15 05:38:24;;;;;;;;;0.00;0.00;;;;;15.49;66.52;99623.03;5120801;27;45366;-72
2024/01/15 05:40:50;;;;;;;;;2.33;2.00;;;;;15.50;66.44;99621.31;5120449;27;45462;-72
2024/01/15 05:43:15;;;;;;;;;2.67;1.67;;;;;15.50;66.23;99614.28;5120055;27;45896;-72
2024/01/15 05:45:43;;;;;;;;;1.00;1.00;;;;;15.36;66.50;99584.53;5120190;27;45388;-72
2024/01/15 05:48:09;;;;;;;;;1.33;1.00;;;;;15.49;66.38;99611.66;5120312;27;45306;-72
2024/01/15 05:50:34;;;;;;;;;2.00;1.00;;;;;15.44;66.32;99606.41;5120062;27;45400;-72
2024/01/15 05:53:00;;;;;;;;;0.00;0.00;;;;;15.45;66.46;99609.91;5119984;27;46002;-72
2024/01/15 05:55:26;;;;;;;;;0.33;0.33;;;;;15.49;66.25;99612.53;5120122;27;45393;-72
2024/01/15 05:57:51;;;;;;;;;0.00;0.00;;;;;15.50;66.26;99603.75;5120199;27;45301;-72
2024/01/15 06:00:17;;;;;;;;;0.00;0.00;;;;;15.44;66.14;99597.66;5120172;27;45309;-72
2024/01/15 06:02:43;;;;;;;;;0.00;0.00;;;;;15.50;66.44;99605.53;5119671;27;45448;-72
2024/01/15 06:05:08;;;;;;;;;0.00;0.00;;;;;15.23;66.23;99557.38;5119408;27;45281;-72
2024/01/15 06:07:36;;;;;;;;;0.00;0.00;;;;;15.50;66.50;99600.25;5119029;27;45746;-72
2024/01/15 06:10:02;;;;;;;;;0.00;0.00;;;;;15.22;66.34;99550.41;5120174;27;45465;-72
2024/01/15 06:12:28;;;;;;;;;0.00;0.00;;;;;15.48;66.44;99597.63;5120007;27;45228;-72
2024/01/15 06:14:53;;;;;;;;;0.00;0.00;;;;;15.31;66.36;99570.50;5119863;27;45472;-72
2024/01/15 06:17:19;;;;;;;;;0.00;0.00;;;;;15.44;66.28;99597.66;5119708;27;45312;-72
2024/01/15 06:19:45;;;;;;;;;0.00;0.00;;;;;15.42;66.41;99607.28;5119943;27;45261;-72
2024/01/15 06:22:10;;;;;;;;;1.00;1.00;;;;;15.45;66.59;99604.66;5119284;27;45486;-72
2024/01/15 06:24:36;;;;;;;;;0.00;0.00;;;;;15.32;66.34;99580.16;5119123;27;45231;-72
2024/01/15 06:27:02;;;;;;;;;0.00;0.00;;;;;15.41;66.54;99600.28;5119577;27;45439;-72
2024/01/15 06:29:28;;;;;;;;;1.00;0.00;;;;;15.34;66.24;99604.72;5120153;27;46127;-72
2024/01/15 06:31:54;;;;;;;;;1.00;1.00;;;;;15.42;66.32;99617.81;5119248;27;46209;-72
2024/01/15 06:34:19;;;;;;;;;1.33;1.33;;;;;15.31;66.38;99591.56;5119266;27;45244;-72
2024/01/15 06:36:45;;;;;;;;;2.00;2.00;;;;;15.42;66.52;99616.09;5119197;27;45485;-72
2024/01/15 06:39:11;;;;;;;;;4.00;4.00;;;;;15.20;66.33;99585.47;5119494;27;45482;-72
2024/01/15 06:41:43;;;;;;;;;4.67;4.33;;;;;15.44;66.25;99611.69;5119145;27;45395;-72
2024/01/15 06:44:10;;;;;;;;;2.00;2.00;;;;;15.37;66.07;99595.94;5119158;27;45411;-72
2024/01/15 06:46:36;;;;;;;;;2.00;1.00;;;;;15.43;66.18;99598.53;5119083;27;45474;-72
2024/01/15 06:49:02;;;;;;;;;2.67;1.67;;;;;15.38;66.11;99588.03;5119173;27;45245;-72
2024/01/15 06:51:28;;;;;;;;;2.00;2.00;;;;;15.52;65.81;99602.00;5119182;27;45293;-71
2024/01/15 06:53:53;;;;;;;;;1.00;1.00;;;;;15.57;65.95;99615.13;5119038;27;45368;-72
2024/01/15 06:56:19;;;;;;;;;1.00;1.00;;;;;15.58;65.72;99613.34;5118757;27;45326;-72
2024/01/15 06:58:45;;;;;;;;;3.00;3.00;;;;;15.61;65.87;99614.22;5119169;27;45513;-72
2024/01/15 07:01:10;;;;;;;;;0.00;0.00;;;;;15.60;65.62;99601.94;5119578;27;45530;-72
2024/01/15 07:03:36;;;;;;;;;0.00;0.00;;;;;15.65;65.30;99605.41;5119573;27;45507;-72
2024/01/15 07:06:01;;;;;;;;;1.00;0.67;;;;;15.67;65.10;99606.28;5119406;27;45539;-72
2024/01/15 07:08:27;;;;;;;;;0.67;0.67;;;;;15.66;65.13;99606.31;5118822;27;45497;-72
2024/01/15 07:10:53;;;;;;;;;0.67;0.00;;;;;15.66;65.07;99612.44;5118715;27;46150;-72
2024/01/15 07:13:18;;;;;;;;;0.00;0.00;;;;;15.68;64.81;99594.88;5118738;27;45408;-72
2024/01/15 07:15:44;;;;;;;;;0.67;0.00;;;;;15.71;64.64;99607.13;5118718;27;45455;-72
2024/01/15 07:18:09;;;;;;;;;0.00;0.00;;;;;15.71;64.37;99605.38;5118524;27;45226;-72
2024/01/15 07:20:35;;;;;;;;;0.00;0.00;;;;;15.68;64.63;99601.91;5116891;27;47675;-72
2024/01/15 07:23:01;;;;;;;;;1.00;1.00;;;;;15.54;64.54;99582.66;5118694;27;45544;-72
2024/01/15 07:25:27;;;;;;;;;1.00;1.00;;;;;15.73;64.49;99610.66;5118661;27;45547;-72
2024/01/15 07:27:53;;;;;;;;;1.00;1.00;;;;;15.75;64.42;99600.13;5117562;27;45396;-71
2024/01/15 07:30:21;;;;;;;;;4.00;3.67;;;;;15.77;64.16;99608.91;5118639;27;45458;-72
2024/01/15 07:32:47;;;;;;;;;3.67;2.67;;;;;15.78;64.16;99598.38;5118359;27;45440;-72
2024/01/15 07:35:15;;;;;;;;;0.67;0.00;;;;;15.80;64.08;99607.13;5118555;27;45521;-72
2024/01/15 07:37:41;;;;;;;;;1.00;1.00;;;;;15.82;63.97;99607.13;5118692;27;45562;-71
2024/01/15 07:40:08;;;;;;;;;1.00;1.00;;;;;15.70;64.03;99579.06;5118235;27;45349;-72
2024/01/15 07:42:34;;;;;;;;;1.00;1.00;;;;;15.84;63.79;99608.84;5118584;27;45335;-72
2024/01/15 07:45:01;;;;;;;;;2.00;1.00;;;;;15.72;63.71;99582.56;5118698;27;45392;-72
2024/01/15 07:47:27;;;;;;;;;1.00;1.00;;;;;15.86;63.83;99591.28;5117542;27;45578;-70
2024/01/15 07:50:15;;;;;;;;;1.00;1.00;;;;;15.86;63.51;99585.16;5117052;27;45406;-71
2024/01/15 07:52:44;;;;;;;;;2.00;1.00;;;;;15.88;63.72;99586.00;5114511;27;45494;-72
2024/01/15 07:55:09;;;;;;;;;1.00;1.00;;;;;15.69;63.70;99556.25;5117269;27;45566;-71
2024/01/15 07:57:35;;;;;;;;;0.00;0.00;;;;;15.89;63.38;99587.75;5117588;27;45524;-69
2024/01/15 08:00:03;;;;;;;;;0.33;0.00;;;;;15.64;63.50;99537.88;5117606;27;45596;-71
2024/01/15 08:02:29;;;;;;;;;1.00;1.00;;;;;15.94;63.24;99591.22;5116861;27;45545;-70
2024/01/15 08:04:54;;;;;;;;;0.33;0.00;;;;;15.97;63.05;99593.81;5117116;27;45406;-71
2024/01/15 08:07:20;;;;;;;;;0.67;0.67;;;;;16.01;62.94;99589.41;5117572;27;45368;-70
2024/01/15 08:09:47;;;;;;;;;0.67;0.67;;;;;16.01;62.92;99589.41;5117234;27;46128;-71
2024/01/15 08:12:13;;;;;;;;;0.00;0.00;;;;;15.99;62.77;99593.81;5117196;27;45485;-69
2024/01/15 08:14:39;;;;;;;;;0.67;0.00;;;;;16.13;62.69;99599.84;5117202;27;45419;-71
2024/01/15 08:17:04;;;;;;;;;1.00;0.33;;;;;16.09;62.85;99613.94;5117589;27;45579;-72
2024/01/15 08:19:30;;;;;;;;;0.00;0.00;;;;;16.14;62.88;99616.56;5116950;27;45803;-72
2024/01/15 08:21:56;;;;;;;;;1.00;1.00;;;;;16.18;62.98;99624.41;5116926;27;45406;-71
2024/01/15 08:24:21;;;;;;;;;2.00;2.00;;;;;15.84;63.07;99563.22;5117230;27;45445;-70
2024/01/15 08:26:47;;;;;;;;;2.00;2.00;;;;;16.23;63.33;99637.56;5117162;27;45808;-72
2024/01/15 08:29:13;;;;;;;;;1.00;1.00;;;;;16.25;63.14;99638.41;5116971;27;45523;-71
2024/01/15 08:31:39;;;;;;;;;1.00;1.00;;;;;16.28;62.99;99636.63;5120316;27;45379;-71
2024/01/15 08:34:04;;;;;;;;;2.00;1.00;;;;;16.08;63.33;99601.66;5120209;27;45630;-71
2024/01/15 08:36:30;;;;;;;;;1.00;0.67;;;;;16.27;63.40;99634.91;5120075;27;45433;-71
2024/01/15 08:38:56;;;;;;;;;2.00;2.00;;;;;16.27;63.48;99637.53;5119669;27;45572;-71
2024/01/15 08:41:23;;;;;;;;;2.00;1.00;;;;;16.10;63.51;99605.16;5120147;27;45486;-70
2024/01/15 08:43:49;;;;;;;;;10.00;9.33;;;;;16.24;63.80;99623.50;5120281;27;45480;-71
2024/01/15 08:46:14;;;;;;;;;10.50;9.25;;;;;16.28;63.69;99625.22;5120439;27;45458;-72
2024/01/15 08:48:40;;;;;;;;;7.00;7.00;;;;;16.05;63.82;99586.75;5119662;27;45883;-71
2024/01/15 08:51:06;;;;;;;;;4.00;4.00;;;;;16.31;63.96;99622.53;5119879;27;45466;-72
2024/01/15 08:53:32;;;;;;;;;3.00;2.00;;;;;16.08;63.81;99576.19;5118170;27;45391;-71
2024/01/15 08:55:58;;;;;;;;;1.00;1.00;;;;;16.33;63.93;99615.50;5119598;27;45543;-72
2024/01/15 08:58:24;;;;;;;;;2.33;1.33;;;;;16.22;63.81;99589.25;5119327;27;45422;-70
2024/01/15 09:00:50;;;;;;;;;2.67;2.00;;;;;16.43;63.90;99597.84;5118902;27;45389;-71
2024/01/15 09:03:16;;;;;;;;;1.00;1.00;;;;;16.51;64.40;99601.28;5118916;27;45266;-71
2024/01/15 09:05:42;;;;;;;;;1.00;1.00;;;;;16.55;64.19;99597.72;5117192;27;45384;-68
2024/01/15 09:08:08;;;;;;;;;1.00;1.00;;;;;16.62;64.25;99615.25;5119230;27;46258;-69
2024/01/15 09:10:34;;;;;;;;;2.00;0.00;;;;;16.66;63.94;99609.06;5119882;27;45284;-67
2024/01/15 09:13:00;;;;;;;;;2.67;1.33;;;;;16.70;63.88;99610.78;5119913;27;45563;-68
2024/01/15 09:15:25;;;;;;;;;0.00;0.00;;;;;16.71;63.61;99601.09;5119845;27;45442;-67
2024/01/15 09:17:51;;;;;;;;;1.00;1.00;;;;;16.78;63.76;99599.28;5119347;27;46057;-69
2024/01/15 09:20:17;;;;;;;;;1.00;1.00;;;;;16.84;63.78;99604.53;5119587;27;45369;-70
2024/01/15 09:22:42;;;;;;;;;0.00;0.00;;;;;16.72;63.32;99576.47;5119667;27;45382;-71
2024/01/15 09:25:09;;;;;;;;;1.00;1.00;;;;;16.84;63.27;99609.78;5120786;27;45503;-71
2024/01/15 09:27:35;;;;;;;;;0.33;0.33;;;;;16.92;63.10;99617.63;5120657;27;46454;-71
2024/01/15 09:30:02;;;;;;;;;2.00;2.00;;;;;16.97;62.62;99618.44;5120053;27;45373;-71
2024/01/15 09:32:28;;;;;;;;;0.33;0.33;;;;;16.97;62.60;99619.34;5119916;27;45429;-70
2024/01/15 09:34:53;;;;;;;;;1.00;1.00;;;;;16.97;62.74;99615.81;5119093;27;46372;-70
2024/01/15 09:37:19;;;;;;;;;0.67;0.67;;;;;16.93;62.69;99622.00;5117928;27;45397;-69
2024/01/15 09:39:45;;;;;;;;;1.00;1.00;;;;;16.92;62.72;99626.41;5119962;27;45278;-70
2024/01/15 09:42:16;;;;;;;;;1.00;1.00;;;;;16.84;62.61;99610.66;5118285;27;45445;-69
2024/01/15 09:44:41;;;;;;;;;2.67;1.67;;;;;16.77;62.55;99595.78;5119476;27;45767;-70
2024/01/15 09:47:09;;;;;;;;;3.33;3.00;;;;;16.94;62.86;99626.41;5119054;27;45403;-70
2024/01/15 09:49:34;;;;;;;;;3.00;2.00;;;;;16.85;62.82;99616.81;5119824;27;45435;-70
2024/01/15 09:52:02;;;;;;;;;4.00;3.00;;;;;16.95;63.32;99643.97;5119047;27;45529;-71
2024/01/15 09:54:27;;;;;;;;;8.67;5.67;;;;;16.93;63.10;99640.47;5118852;27;45545;-70
2024/01/15 09:56:54;;;;;;;;;7.67;7.00;;;;;16.92;63.24;99647.53;5118716;27;46270;-70
2024/01/15 09:59:22;;;;;;;;;13.00;11.00;;;;;16.90;63.83;99652.81;5118877;27;45409;-69
2024/01/15 10:01:50;;;;;;;;;6.00;5.00;;;;;16.92;63.43;99659.84;5118386;27;45526;-69
2024/01/15 10:04:16;;;;;;;;;2.00;1.00;;;;;16.94;63.42;99663.34;5116641;27;45486;-69
2024/01/15 10:06:47;;;;;;;;;1.00;1.00;;;;;16.95;63.82;99665.06;5119559;27;45529;-70
2024/01/15 10:09:16;;;;;;;;;2.00;1.67;;;;;16.97;63.83;99655.38;5119559;27;45442;-69
2024/01/15 10:11:42;;;;;;;;;5.00;5.00;;;;;17.00;63.88;99653.59;5119730;27;45414;-68
2024/01/15 10:14:09;;;;;;;;;3.00;3.00;;;;;17.05;64.14;99650.88;5120297;27;45304;-70
2024/01/15 10:16:35;;;;;;;;;5.67;5.67;;;;;17.14;64.07;99657.84;5118958;27;45703;-73
2024/01/15 10:19:00;;;;;;;;;6.00;4.00;;;;;17.21;64.03;99652.50;5117949;27;45423;-72
2024/01/15 10:21:29;;;;;;;;;3.00;3.00;;;;;17.28;63.78;99654.16;5118330;27;45395;-72
2024/01/15 10:23:54;;;;;;;;;4.00;2.67;;;;;17.34;63.80;99652.34;5118655;27;45461;-72
2024/01/15 10:26:25;;;;;;;;;2.00;1.00;;;;;17.38;63.99;99659.31;5118095;27;45584;-71
2024/01/15 10:28:52;;;;;;;;;7.00;6.00;;;;;17.30;63.88;99649.72;5115722;27;45408;-72
2024/01/15 10:31:19;;;;;;;;;21.75;20.00;;;;;17.42;64.04;99655.75;5119335;27;45559;-70
2024/01/15 10:33:45;;;;;;;;;2.00;2.00;;;;;17.42;64.29;99655.75;5119359;27;45494;-70
2024/01/15 10:36:13;;;;;;;;;2.00;1.00;;;;;17.47;63.98;99662.72;5119155;27;46106;-70
2024/01/15 10:38:39;;;;;;;;;3.00;2.00;;;;;17.46;64.10;99673.31;5118221;27;45447;-69
2024/01/15 10:41:04;;;;;;;;;6.00;5.00;;;;;17.45;63.95;99679.50;5115562;27;45167;-69
2024/01/15 10:43:30;;;;;;;;;1.00;1.00;;;;;17.38;64.01;99680.44;5118792;27;45493;-70
2024/01/15 10:45:56;;;;;;;;;3.00;3.00;;;;;17.34;63.81;99671.69;5118145;27;45446;-69
2024/01/15 10:48:22;;;;;;;;;4.00;3.67;;;;;17.32;63.73;99680.53;5118203;27;45396;-69
2024/01/15 10:50:48;;;;;;;;;4.00;3.00;;;;;17.30;63.71;99689.31;5118213;27;45317;-69
2024/01/15 10:53:16;;;;;;;;;2.33;1.33;;;;;17.33;63.83;99699.00;5118188;27;45706;-68
2024/01/15 10:55:43;;;;;;;;;2.00;2.00;;;;;17.32;64.13;99699.00;5118237;27;46396;-69
2024/01/15 10:58:09;;;;;;;;;11.33;10.33;;;;;17.21;64.29;99689.44;5117905;27;45532;-68
2024/01/15 11:00:39;;;;;;;;;4.33;4.33;;;;;17.35;64.39;99696.31;5118852;27;45273;-69
2024/01/15 11:03:07;;;;;;;;;1.67;1.67;;;;;17.34;64.25;99700.72;5117291;27;45419;-69
2024/01/15 11:05:36;;;;;;;;;8.33;8.33;;;;;17.34;64.31;99699.84;5115489;27;45516;-70
2024/01/15 11:08:02;;;;;;;;;26.00;24.00;;;;;17.36;64.82;99695.44;5117821;27;45370;-69
2024/01/15 11:10:49;;;;;;;;;13.00;13.00;;;;;17.32;64.93;99702.50;5117728;27;45608;-69
2024/01/15 11:13:20;;;;;;;;;10.33;9.67;;;;;17.38;65.07;99712.13;5116091;27;45461;-70
2024/01/15 11:16:00;;;;;;;;;14.33;14.33;;;;;17.39;65.00;99719.13;5117574;27;45293;-70
2024/01/15 11:18:31;;;;;;;;;20.75;17.25;;;;;17.41;65.08;99723.53;5117558;27;45478;-69
2024/01/15 11:21:15;;;;;;;;;11.25;10.25;;;;;17.38;65.02;99723.56;5117932;27;45401;-69
2024/01/15 11:23:46;;;;;;;;;9.33;8.00;;;;;17.17;64.93;99703.56;5117097;27;45239;-69
2024/01/15 11:26:38;;;;;;;;;8.67;8.67;;;;;17.35;65.17;99741.19;5115041;27;45607;-69